Terminal Aerodrome Forecast
Issued by NWS Paducah, KY

Home | Current Version | Previous Version | Text Only | Print | Product List | Glossary On
Versions: 1 2 3 4 5 6 7 8 9 10 11 12 13
000
FTUS43 KPAH 190520
TAFEVV
TAF
KEVV 190520Z 1906/2006 31006G22KT P6SM BKN040
     FM191400 35010G18KT P6SM OVC025
     FM192100 01009KT P6SM BKN035
     FM192300 01004KT P6SM SKC=

USA.gov is the U.S. government's official web portal to all federal, state and local government web resources and services.